createdAt,value
2023-05-28T00:01:05.028Z,49.80
2023-05-28T00:03:36.717Z,51.33
2023-05-28T00:06:04.751Z,51.22
2023-05-28T00:08:31.750Z,53.53
2023-05-28T00:11:01.152Z,50.77
2023-05-28T00:13:31.054Z,47.15
2023-05-28T00:15:58.055Z,58.58
2023-05-28T00:18:26.198Z,43.70
2023-05-28T00:20:53.117Z,43.93
2023-05-28T00:23:20.188Z,47.17
2023-05-28T00:25:47.374Z,43.20
2023-05-28T00:28:14.377Z,47.25
2023-05-28T00:30:41.403Z,56.08
2023-05-28T00:33:08.384Z,54.23
2023-05-28T00:35:35.534Z,57.78
2023-05-28T00:38:02.408Z,60.13
2023-05-28T00:40:30.394Z,55.80
2023-05-28T00:42:57.500Z,51.50
2023-05-28T00:45:24.382Z,48.90
2023-05-28T00:47:51.796Z,57.85
2023-05-28T00:50:18.776Z,47.28
2023-05-28T00:52:46.707Z,49.40
2023-05-28T00:55:16.861Z,54.97
2023-05-28T00:57:44.125Z,63.70
2023-05-28T01:00:11.776Z,59.40
2023-05-28T01:02:39.286Z,49.33
2023-05-28T01:05:07.542Z,53.47
2023-05-28T01:07:34.410Z,54.10
2023-05-28T01:10:01.350Z,53.08
2023-05-28T01:12:28.214Z,50.58
2023-05-28T01:14:55.110Z,47.33
2023-05-28T01:17:22.109Z,48.50
2023-05-28T01:19:49.079Z,60.13
2023-05-28T01:22:18.109Z,50.13
2023-05-28T01:24:47.914Z,49.97
2023-05-28T01:27:14.898Z,43.50
2023-05-28T01:29:41.771Z,46.78
2023-05-28T01:32:08.616Z,56.83
2023-05-28T01:34:35.562Z,55.15
2023-05-28T01:37:03.346Z,52.55
2023-05-28T01:39:33.753Z,51.78
2023-05-28T01:42:00.711Z,58.67
2023-05-28T01:44:27.630Z,51.37
2023-05-28T01:46:55.376Z,57.60
2023-05-28T01:49:22.791Z,43.87
2023-05-28T01:51:51.981Z,59.47
2023-05-28T01:54:19.210Z,54.28
2023-05-28T01:56:46.529Z,52.58
2023-05-28T01:59:13.644Z,62.03
2023-05-28T02:01:40.803Z,49.27
2023-05-28T02:04:07.779Z,57.87
2023-05-28T02:06:35.064Z,46.40
2023-05-28T02:09:03.047Z,55.97
2023-05-28T02:11:29.904Z,48.30
2023-05-28T02:13:57.017Z,46.67
2023-05-28T02:16:24.889Z,55.08
2023-05-28T02:18:52.693Z,50.75
2023-05-28T02:21:19.908Z,60.67
2023-05-28T02:23:48.770Z,50.75
2023-05-28T02:26:16.865Z,46.03
2023-05-28T02:28:44.283Z,43.90
2023-05-28T02:31:11.972Z,49.65
2023-05-28T02:33:45.181Z,47.60
2023-05-28T02:36:14.843Z,53.63
2023-05-28T02:38:42.268Z,51.90
2023-05-28T02:41:10.798Z,54.10
2023-05-28T02:43:37.748Z,59.22
2023-05-28T02:46:04.729Z,51.88
2023-05-28T02:48:32.042Z,58.72
2023-05-28T02:50:59.012Z,60.17
2023-05-28T02:53:29.837Z,58.33
2023-05-28T02:55:56.755Z,66.82
2023-05-28T02:58:24.991Z,60.05
2023-05-28T03:00:51.997Z,63.87
2023-05-28T03:03:19.994Z,63.08
2023-05-28T03:05:47.133Z,59.20
2023-05-28T03:08:14.029Z,54.78
2023-05-28T03:10:41.087Z,65.38
2023-05-28T03:13:09.165Z,63.73
2023-05-28T03:15:36.272Z,52.83
2023-05-28T03:18:04.784Z,67.33
2023-05-28T03:20:31.827Z,54.13
2023-05-28T03:22:59.047Z,50.87
2023-05-28T03:25:27.010Z,62.10
2023-05-28T03:27:54.657Z,56.05
2023-05-28T03:30:22.598Z,56.97
2023-05-28T03:32:50.759Z,58.55
2023-05-28T03:35:17.941Z,64.03
2023-05-28T03:37:44.834Z,62.23
2023-05-28T03:40:12.034Z,63.70
2023-05-28T03:42:39.625Z,62.13
2023-05-28T03:45:07.337Z,56.95
2023-05-28T03:47:34.601Z,64.63
2023-05-28T03:50:01.626Z,71.88
2023-05-28T03:52:28.753Z,65.57
2023-05-28T03:54:55.825Z,54.90
2023-05-28T03:57:22.709Z,58.33
2023-05-28T03:59:49.582Z,63.53
2023-05-28T04:02:16.460Z,74.18
2023-05-28T04:04:43.451Z,60.93
2023-05-28T04:07:10.365Z,64.18
2023-05-28T04:09:37.262Z,59.45
2023-05-28T04:12:04.408Z,54.00
2023-05-28T04:14:31.276Z,55.35
2023-05-28T04:16:58.980Z,56.45
2023-05-28T04:19:25.969Z,58.78
2023-05-28T04:21:52.884Z,58.25
2023-05-28T04:24:19.745Z,55.95
2023-05-28T04:26:47.512Z,56.47
2023-05-28T04:29:16.223Z,63.33
2023-05-28T04:31:45.005Z,60.05
2023-05-28T04:34:12.817Z,57.35
2023-05-28T04:36:39.768Z,60.35
2023-05-28T04:39:06.715Z,60.30
2023-05-28T04:41:33.638Z,61.63
2023-05-28T04:44:00.609Z,55.80
2023-05-28T04:46:30.837Z,59.83
2023-05-28T04:48:58.855Z,63.95
2023-05-28T04:51:26.140Z,56.93
2023-05-28T04:53:53.057Z,51.42
2023-05-28T04:56:21.118Z,55.22
2023-05-28T04:58:48.126Z,48.78
2023-05-28T05:01:18.006Z,50.63
2023-05-28T05:03:45.009Z,59.95
2023-05-28T05:06:12.333Z,52.03
2023-05-28T05:08:47.084Z,64.18
2023-05-28T05:11:16.497Z,48.55
2023-05-28T05:13:43.363Z,48.05
2023-05-28T05:16:10.239Z,62.83
2023-05-28T05:18:37.235Z,51.70
2023-05-28T05:21:04.191Z,52.92
2023-05-28T05:23:31.047Z,53.88
2023-05-28T05:25:57.966Z,54.63
2023-05-28T05:28:24.839Z,52.33
2023-05-28T05:30:51.696Z,51.95
2023-05-28T05:33:18.663Z,55.15
2023-05-28T05:35:46.646Z,55.08
2023-05-28T05:38:13.601Z,47.72
2023-05-28T05:40:40.629Z,50.67
2023-05-28T05:43:07.907Z,40.63
2023-05-28T05:45:35.819Z,38.28
2023-05-28T05:48:02.794Z,45.60
2023-05-28T05:50:29.749Z,58.90
2023-05-28T05:52:56.670Z,54.13
2023-05-28T05:55:23.534Z,51.38
2023-05-28T05:57:51.088Z,41.97
2023-05-28T06:00:18.815Z,48.95
2023-05-28T06:02:45.793Z,45.05
2023-05-28T06:05:13.059Z,45.72
2023-05-28T06:07:39.930Z,36.38
2023-05-28T06:10:07.348Z,41.30
2023-05-28T06:12:36.190Z,44.42
2023-05-28T06:15:04.445Z,47.88
2023-05-28T06:17:31.757Z,39.92
2023-05-28T06:20:00.747Z,33.55
2023-05-28T06:22:27.829Z,52.13
2023-05-28T06:24:56.311Z,42.97
2023-05-28T06:27:23.567Z,32.63
2023-05-28T06:29:50.518Z,35.90
2023-05-28T06:32:17.382Z,39.15
2023-05-28T06:34:44.520Z,40.80
2023-05-28T06:37:13.604Z,35.20
2023-05-28T06:39:40.692Z,39.33
2023-05-28T06:42:09.693Z,33.92
2023-05-28T06:44:38.808Z,35.15
2023-05-28T06:47:05.900Z,33.42
2023-05-28T06:49:32.872Z,40.13
2023-05-28T06:51:59.738Z,30.77
2023-05-28T06:54:26.587Z,33.20
2023-05-28T06:56:53.463Z,39.92
2023-05-28T06:59:21.457Z,34.88
2023-05-28T07:01:48.395Z,32.97
2023-05-28T07:04:15.387Z,33.92
2023-05-28T07:06:42.687Z,32.78
2023-05-28T07:09:11.395Z,32.78
2023-05-28T07:11:39.286Z,28.75
2023-05-28T07:14:08.185Z,30.00
2023-05-28T07:16:35.126Z,24.50
2023-05-28T07:19:02.068Z,35.45
2023-05-28T07:21:28.971Z,37.75
2023-05-28T07:23:55.894Z,29.08
2023-05-28T07:26:26.562Z,34.63
2023-05-28T07:28:54.515Z,30.65
2023-05-28T07:31:21.816Z,29.73
2023-05-28T07:33:48.699Z,36.33
2023-05-28T07:36:15.748Z,30.67
2023-05-28T07:38:43.767Z,31.10
2023-05-28T07:41:10.827Z,35.45
2023-05-28T07:43:38.825Z,38.08
2023-05-28T07:46:08.234Z,29.55
2023-05-28T07:48:35.189Z,35.10
2023-05-28T07:51:02.072Z,30.55
2023-05-28T07:53:32.329Z,33.10
2023-05-28T07:56:03.552Z,33.60
2023-05-28T07:58:30.407Z,27.50
2023-05-28T08:00:57.389Z,32.45
2023-05-28T08:03:28.665Z,29.38
2023-05-28T08:05:56.312Z,26.23
2023-05-28T08:08:23.261Z,28.77
2023-05-28T08:10:50.169Z,30.90
2023-05-28T08:13:17.104Z,35.45
2023-05-28T08:15:47.236Z,34.88
2023-05-28T08:18:14.396Z,25.92
2023-05-28T08:20:41.483Z,28.52
2023-05-28T08:23:08.401Z,26.50
2023-05-28T08:25:36.233Z,37.65
2023-05-28T08:28:03.186Z,27.67
2023-05-28T08:30:30.041Z,33.40
2023-05-28T08:32:56.972Z,31.95
2023-05-28T08:35:24.032Z,29.55
2023-05-28T08:37:52.746Z,28.83
2023-05-28T08:40:19.730Z,25.70
2023-05-28T08:42:46.776Z,32.17
2023-05-28T08:45:15.924Z,30.40
2023-05-28T08:47:47.128Z,32.42
2023-05-28T08:50:14.397Z,33.40
2023-05-28T08:52:43.675Z,27.25
2023-05-28T08:55:13.221Z,26.08
2023-05-28T08:57:45.534Z,27.98
2023-05-28T09:00:13.206Z,24.88
2023-05-28T09:02:41.688Z,30.42
2023-05-28T09:05:15.523Z,28.70
2023-05-28T09:07:42.516Z,29.80
2023-05-28T09:10:16.926Z,26.92
2023-05-28T09:13:13.589Z,33.03
2023-05-28T09:15:42.583Z,25.58
2023-05-28T09:18:09.583Z,37.22
2023-05-28T09:20:38.585Z,28.15
2023-05-28T09:23:07.836Z,28.52
2023-05-28T09:25:37.149Z,20.60
2023-05-28T09:28:04.241Z,33.58
2023-05-28T09:30:44.550Z,29.83
2023-05-28T09:33:11.581Z,32.80
2023-05-28T09:35:38.517Z,27.17
2023-05-28T09:38:09.459Z,25.52
2023-05-28T09:40:45.162Z,31.55
2023-05-28T09:43:14.027Z,31.88
2023-05-28T09:46:14.350Z,22.55
2023-05-28T09:48:41.272Z,30.85
2023-05-28T09:51:09.239Z,32.58
2023-05-28T09:53:37.299Z,25.25
2023-05-28T09:56:04.176Z,25.95
2023-05-28T09:58:35.456Z,30.45
2023-05-28T10:01:04.927Z,29.48
2023-05-28T10:03:39.914Z,26.60
2023-05-28T10:06:15.881Z,24.30
2023-05-28T10:09:14.194Z,34.95
2023-05-28T10:11:45.429Z,32.75
2023-05-28T10:14:13.335Z,28.48
2023-05-28T10:16:40.357Z,24.52
2023-05-28T10:19:07.343Z,30.60
2023-05-28T10:21:34.555Z,27.05
2023-05-28T10:24:03.561Z,29.38
2023-05-28T10:26:30.802Z,30.40
2023-05-28T10:28:59.750Z,27.13
2023-05-28T10:31:27.663Z,27.83
2023-05-28T10:33:54.606Z,27.38
2023-05-28T10:36:21.546Z,26.42
2023-05-28T10:38:54.310Z,26.13
2023-05-28T10:41:24.263Z,25.80
2023-05-28T10:43:54.263Z,28.40
2023-05-28T10:46:36.418Z,32.92
2023-05-28T10:49:12.202Z,27.48
2023-05-28T10:52:03.869Z,25.48
2023-05-28T10:54:30.742Z,31.23
2023-05-28T10:57:20.299Z,30.38
2023-05-28T10:59:59.172Z,24.35
2023-05-28T11:02:27.109Z,34.00
2023-05-28T11:04:56.546Z,30.08
2023-05-28T11:07:30.762Z,35.50
2023-05-28T11:09:58.581Z,25.75
2023-05-28T11:12:29.424Z,30.88
2023-05-28T11:14:56.511Z,30.45
2023-05-28T11:17:23.598Z,29.38
2023-05-28T11:19:51.791Z,28.98
2023-05-28T11:22:19.308Z,28.77
2023-05-28T11:24:53.652Z,36.50
2023-05-28T11:27:22.698Z,35.72
2023-05-28T11:29:50.008Z,35.50
2023-05-28T11:32:21.727Z,36.13
2023-05-28T11:34:52.976Z,28.42
2023-05-28T11:37:45.981Z,30.08
2023-05-28T11:40:15.045Z,31.05
2023-05-28T11:42:43.878Z,30.15
2023-05-28T11:45:12.957Z,31.80
2023-05-28T11:47:43.767Z,35.28
2023-05-28T11:50:13.322Z,29.00
2023-05-28T11:52:40.578Z,31.48
2023-05-28T11:55:08.118Z,31.45
2023-05-28T11:57:35.072Z,36.80
2023-05-28T12:00:13.366Z,27.23
2023-05-28T12:02:58.927Z,33.17
2023-05-28T12:05:28.672Z,29.45
2023-05-28T12:07:58.667Z,35.10
2023-05-28T12:10:28.690Z,30.15
2023-05-28T12:12:58.741Z,28.50
2023-05-28T12:15:30.809Z,29.40
2023-05-28T12:18:04.162Z,27.95
2023-05-28T12:20:33.606Z,33.47
2023-05-28T12:23:11.034Z,37.78
2023-05-28T12:25:44.430Z,35.17
2023-05-28T12:28:13.965Z,30.95
2023-05-28T12:30:42.634Z,33.85
2023-05-28T12:33:10.823Z,37.47
2023-05-28T12:35:39.553Z,33.45
2023-05-28T12:38:06.503Z,29.65
2023-05-28T12:40:33.465Z,32.75
2023-05-28T12:43:00.664Z,33.25
2023-05-28T12:45:28.599Z,34.90
2023-05-28T12:47:55.681Z,33.80
2023-05-28T12:50:24.574Z,24.17
2023-05-28T12:52:53.601Z,28.23
2023-05-28T12:55:22.019Z,31.27
2023-05-28T12:57:49.207Z,31.15
2023-05-28T13:00:17.425Z,29.70
2023-05-28T13:02:44.414Z,25.73
2023-05-28T13:05:11.570Z,27.13
2023-05-28T13:07:38.438Z,26.85
2023-05-28T13:10:09.102Z,33.95
2023-05-28T13:12:38.137Z,24.23
2023-05-28T13:15:08.537Z,29.48
2023-05-28T13:17:35.666Z,26.25
2023-05-28T13:20:06.314Z,29.25
2023-05-28T13:22:36.601Z,25.55
2023-05-28T13:25:04.820Z,35.90
2023-05-28T13:27:31.827Z,33.28
2023-05-28T13:29:59.464Z,27.27
2023-05-28T13:32:26.906Z,29.88
2023-05-28T13:34:53.857Z,32.05
2023-05-28T13:37:20.923Z,30.63
2023-05-28T13:39:48.118Z,40.17
2023-05-28T13:42:20.778Z,29.35
2023-05-28T13:44:49.174Z,25.00
2023-05-28T13:47:16.944Z,28.83
2023-05-28T13:49:43.915Z,26.67
2023-05-28T13:52:12.806Z,24.88
2023-05-28T13:54:42.317Z,29.20
2023-05-28T13:57:10.855Z,25.95
2023-05-28T13:59:37.707Z,24.00
2023-05-28T14:02:04.927Z,20.40
2023-05-28T14:04:31.924Z,28.83
2023-05-28T14:06:58.817Z,19.30
2023-05-28T14:09:26.641Z,23.73
2023-05-28T14:12:18.626Z,23.25
2023-05-28T14:14:40.567Z,25.10
2023-05-28T14:17:07.575Z,22.27
2023-05-28T14:19:34.493Z,27.23
2023-05-28T14:22:02.390Z,34.85
2023-05-28T14:24:31.435Z,25.50
2023-05-28T14:26:59.110Z,25.85
2023-05-28T14:29:26.131Z,23.13
2023-05-28T14:31:53.041Z,20.77
2023-05-28T14:34:20.067Z,24.75
2023-05-28T14:36:46.961Z,29.35
2023-05-28T14:39:14.545Z,31.25
2023-05-28T14:41:41.514Z,25.83
2023-05-28T14:44:09.042Z,24.88
2023-05-28T14:46:36.183Z,27.48
2023-05-28T14:49:03.394Z,28.38
2023-05-28T14:51:30.360Z,33.47
2023-05-28T14:53:59.826Z,26.13
2023-05-28T14:56:27.243Z,24.00
2023-05-28T14:58:55.136Z,26.92
2023-05-28T15:01:22.106Z,31.52
2023-05-28T15:03:49.184Z,30.35
2023-05-28T15:06:16.163Z,28.25
2023-05-28T15:08:43.263Z,26.85
2023-05-28T15:11:10.812Z,22.30
2023-05-28T15:13:37.692Z,21.67
2023-05-28T15:16:04.693Z,27.85
2023-05-28T15:18:31.647Z,32.53
2023-05-28T15:20:58.815Z,28.48
2023-05-28T15:23:26.081Z,26.13
2023-05-28T15:25:53.489Z,30.73
2023-05-28T15:28:20.857Z,25.08
2023-05-28T15:30:47.991Z,29.40
2023-05-28T15:33:14.904Z,23.80
2023-05-28T15:35:42.031Z,24.58
2023-05-28T15:38:09.185Z,20.75
2023-05-28T15:40:37.725Z,22.83
2023-05-28T15:43:06.258Z,26.30
2023-05-28T15:45:33.746Z,32.03
2023-05-28T15:48:01.368Z,17.00
2023-05-28T15:50:28.460Z,19.23
2023-05-28T15:52:55.462Z,17.52
2023-05-28T15:55:22.892Z,30.13
2023-05-28T15:57:49.851Z,26.80
2023-05-28T16:00:18.766Z,29.27
2023-05-28T16:02:45.774Z,19.40
2023-05-28T16:05:14.967Z,26.42
2023-05-28T16:07:41.993Z,30.30
2023-05-28T16:10:09.243Z,24.27
2023-05-28T16:12:36.130Z,26.35
2023-05-28T16:15:06.720Z,22.58
2023-05-28T16:17:34.472Z,21.15
2023-05-28T16:20:01.735Z,28.25
2023-05-28T16:22:30.081Z,25.90
2023-05-28T16:24:59.063Z,29.33
2023-05-28T16:27:27.965Z,26.40
2023-05-28T16:29:55.627Z,27.75
2023-05-28T16:32:23.975Z,35.15
2023-05-28T16:34:51.448Z,27.40
2023-05-28T16:37:18.685Z,30.80
2023-05-28T16:39:45.918Z,30.55
2023-05-28T16:42:13.273Z,30.25
2023-05-28T16:44:40.316Z,30.13
2023-05-28T16:47:07.811Z,30.02
2023-05-28T16:49:35.022Z,36.50
2023-05-28T16:52:02.080Z,24.95
2023-05-28T16:54:30.741Z,36.80
2023-05-28T16:56:58.421Z,36.90
2023-05-28T16:59:27.506Z,40.38
2023-05-28T17:01:55.326Z,28.98
2023-05-28T17:04:22.248Z,32.72
2023-05-28T17:06:53.390Z,25.42
2023-05-28T17:09:20.625Z,32.88
2023-05-28T17:11:48.386Z,34.90
2023-05-28T17:14:16.509Z,30.48
2023-05-28T17:16:45.784Z,32.65
2023-05-28T17:19:12.812Z,30.83
2023-05-28T17:21:39.749Z,29.92
2023-05-28T17:24:07.849Z,27.88
2023-05-28T17:26:34.747Z,27.48
2023-05-28T17:29:01.646Z,25.90
2023-05-28T17:31:28.736Z,26.90
2023-05-28T17:33:55.699Z,21.58
2023-05-28T17:36:22.641Z,36.13
2023-05-28T17:38:49.540Z,26.80
2023-05-28T17:41:16.597Z,31.80
2023-05-28T17:43:43.481Z,24.23
2023-05-28T17:46:10.495Z,31.95
2023-05-28T17:48:37.498Z,32.38
2023-05-28T17:51:05.125Z,32.65
2023-05-28T17:53:40.728Z,30.85
2023-05-28T17:56:13.140Z,32.72
2023-05-28T17:58:40.104Z,33.65
2023-05-28T18:01:07.392Z,34.10
2023-05-28T18:03:34.613Z,26.08
2023-05-28T18:06:01.571Z,34.35
2023-05-28T18:08:28.450Z,32.95
2023-05-28T18:10:57.976Z,33.15
2023-05-28T18:13:25.100Z,29.58
2023-05-28T18:15:52.030Z,32.95
2023-05-28T18:18:19.033Z,33.38
2023-05-28T18:20:46.034Z,29.77
2023-05-28T18:23:13.034Z,34.00
2023-05-28T18:25:39.927Z,30.05
2023-05-28T18:28:13.735Z,31.75
2023-05-28T18:30:42.778Z,36.00
2023-05-28T18:33:10.047Z,37.83
2023-05-28T18:35:37.198Z,33.92
2023-05-28T18:38:04.147Z,39.63
2023-05-28T18:40:31.132Z,35.00
2023-05-28T18:42:59.208Z,38.13
2023-05-28T18:45:26.860Z,31.58
2023-05-28T18:47:53.943Z,41.40
2023-05-28T18:50:21.220Z,35.10
2023-05-28T18:52:49.200Z,41.08
2023-05-28T18:55:16.501Z,29.00
2023-05-28T18:57:43.393Z,37.00
2023-05-28T19:00:11.195Z,35.70
2023-05-28T19:02:38.648Z,40.92
2023-05-28T19:05:06.496Z,42.05
2023-05-28T19:07:33.419Z,45.15
2023-05-28T19:10:04.461Z,44.58
2023-05-28T19:12:31.984Z,37.67
2023-05-28T19:15:01.526Z,41.78
2023-05-28T19:17:28.579Z,39.92
2023-05-28T19:19:55.686Z,40.22
2023-05-28T19:22:22.621Z,39.55
2023-05-28T19:24:52.166Z,37.75
2023-05-28T19:27:19.110Z,34.00
2023-05-28T19:29:46.101Z,38.50
2023-05-28T19:32:13.967Z,36.15
2023-05-28T19:34:41.913Z,40.95
2023-05-28T19:37:10.645Z,40.80
2023-05-28T19:39:37.602Z,42.40
2023-05-28T19:42:04.684Z,41.00
2023-05-28T19:44:32.562Z,35.78
2023-05-28T19:46:59.407Z,32.78
2023-05-28T19:49:27.380Z,36.60
2023-05-28T19:51:54.236Z,39.95
2023-05-28T19:54:21.622Z,43.28
2023-05-28T19:56:48.510Z,43.03
2023-05-28T19:59:16.400Z,43.80
2023-05-28T20:01:43.500Z,44.22
2023-05-28T20:04:11.464Z,40.78
2023-05-28T20:06:38.343Z,41.47
2023-05-28T20:09:05.301Z,40.45
2023-05-28T20:11:32.191Z,36.55
2023-05-28T20:13:59.126Z,45.10
2023-05-28T20:16:26.067Z,38.28
2023-05-28T20:18:55.778Z,44.95
2023-05-28T20:21:24.430Z,38.88
2023-05-28T20:23:52.257Z,44.88
2023-05-28T20:26:19.190Z,35.33
2023-05-28T20:28:46.088Z,42.22
2023-05-28T20:31:12.959Z,46.17
2023-05-28T20:33:39.961Z,42.75
2023-05-28T20:36:07.089Z,26.85
2023-05-28T20:38:34.389Z,35.10
2023-05-28T20:41:04.981Z,40.08
2023-05-28T20:43:36.819Z,41.57
2023-05-28T20:46:04.142Z,42.88
2023-05-28T20:48:31.669Z,41.35
2023-05-28T20:50:59.228Z,33.75
2023-05-28T20:53:27.149Z,34.22
2023-05-28T20:55:53.986Z,31.58
2023-05-28T20:58:32.600Z,29.70
2023-05-28T21:01:10.499Z,36.20
2023-05-28T21:03:37.629Z,39.33
2023-05-28T21:06:05.643Z,37.28
2023-05-28T21:08:33.614Z,38.53
2023-05-28T21:11:00.476Z,34.25
2023-05-28T21:13:27.374Z,38.60
2023-05-28T21:15:54.335Z,34.40
2023-05-28T21:18:21.314Z,26.30
2023-05-28T21:20:48.247Z,37.40
2023-05-28T21:23:15.117Z,31.83
2023-05-28T21:25:42.003Z,30.08
2023-05-28T21:28:08.966Z,26.48
2023-05-28T21:30:36.058Z,31.60
2023-05-28T21:33:03.059Z,34.60
2023-05-28T21:35:30.073Z,37.60
2023-05-28T21:37:57.969Z,23.27
2023-05-28T21:40:26.091Z,20.83
2023-05-28T21:42:52.956Z,30.87
2023-05-28T21:45:21.302Z,28.97
2023-05-28T21:47:48.203Z,30.20
2023-05-28T21:50:16.953Z,31.60
2023-05-28T21:52:46.544Z,27.40
2023-05-28T21:55:13.765Z,30.33
2023-05-28T21:57:41.234Z,32.40
2023-05-28T22:00:12.930Z,29.00
2023-05-28T22:02:40.352Z,25.50
2023-05-28T22:05:07.531Z,27.40
2023-05-28T22:07:34.415Z,24.50
2023-05-28T22:10:03.158Z,30.45
2023-05-28T22:12:30.088Z,25.70
2023-05-28T22:14:56.957Z,30.88
2023-05-28T22:17:27.851Z,23.27
2023-05-28T22:19:54.920Z,23.75
2023-05-28T22:22:21.768Z,29.30
2023-05-28T22:24:55.170Z,32.47
2023-05-28T22:27:22.026Z,29.63
2023-05-28T22:29:51.751Z,35.43
2023-05-28T22:32:18.846Z,25.90
2023-05-28T22:34:46.844Z,35.13
2023-05-28T22:37:13.703Z,33.60
2023-05-28T22:39:40.691Z,28.85
2023-05-28T22:42:09.916Z,33.60
2023-05-28T22:44:36.773Z,32.15
2023-05-28T22:47:04.265Z,28.95
2023-05-28T22:49:31.258Z,23.65
2023-05-28T22:52:01.508Z,28.35
2023-05-28T22:54:28.716Z,28.83
2023-05-28T22:56:56.407Z,26.35
2023-05-28T22:59:23.420Z,25.60
2023-05-28T23:01:50.705Z,24.42
2023-05-28T23:04:17.667Z,21.63
2023-05-28T23:06:46.974Z,28.00
2023-05-28T23:09:15.690Z,20.25
2023-05-28T23:11:43.588Z,25.55
2023-05-28T23:14:12.593Z,23.77
2023-05-28T23:16:41.014Z,20.42
2023-05-28T23:19:08.225Z,19.55
2023-05-28T23:21:35.214Z,23.45
2023-05-28T23:24:02.133Z,26.27
2023-05-28T23:26:29.079Z,28.43
2023-05-28T23:28:55.947Z,20.80
2023-05-28T23:31:22.969Z,22.83
2023-05-28T23:33:49.933Z,20.27
2023-05-28T23:36:16.993Z,18.87
2023-05-28T23:38:43.911Z,20.50
2023-05-28T23:41:10.871Z,22.40
2023-05-28T23:43:37.715Z,23.15
2023-05-28T23:46:07.178Z,26.07
2023-05-28T23:48:34.229Z,19.87
2023-05-28T23:51:01.086Z,17.90
2023-05-28T23:53:27.996Z,16.88
2023-05-28T23:55:55.303Z,15.93
2023-05-28T23:58:22.441Z,18.07
